Time;durP1;ratioP1;P1;durP2;ratioP2;P2;SDS_P1;SDS_P2;PMS_P1;PMS_P2;Temp;Humidity;BMP_temperature;BMP_pressure;BME280_temperature;BME280_humidity;BME280_pressure;Samples;Min_cycle;Max_cycle;Signal;HPM_P1;HPM_P2
2021/03/08 00:01:44;;;;;;;28.17;11.57;;;;;;;;;;6223701;23;20175;-89
2021/03/08 00:04:49;;;;;;;33.73;13.67;;;;;;;;;;6224853;23;20175;-89
2021/03/08 00:07:53;;;;;;;32.93;12.63;;;;;;;;;;6222097;23;20222;-88
2021/03/08 00:10:57;;;;;;;28.77;12.03;;;;;;;;;;6223783;23;20238;-87
2021/03/08 00:14:02;;;;;;;29.90;12.03;;;;;;;;;;6224960;23;20199;-87
2021/03/08 00:17:07;;;;;;;24.87;10.43;;;;;;;;;;6224153;22;20294;-88
2021/03/08 00:20:13;;;;;;;22.77;10.83;;;;;;;;;;6224072;23;20265;-86
2021/03/08 00:23:18;;;;;;;25.03;10.63;;;;;;;;;;6223610;23;20233;-90
2021/03/08 00:26:22;;;;;;;24.03;11.07;;;;;;;;;;6223159;23;20199;-86
2021/03/08 00:29:27;;;;;;;25.50;10.37;;;;;;;;;;6222664;23;20286;-88
2021/03/08 00:32:32;;;;;;;26.33;10.53;;;;;;;;;;6223370;23;20171;-89
2021/03/08 00:35:36;;;;;;;27.03;9.73;;;;;;;;;;6223607;23;20170;-90
2021/03/08 00:38:41;;;;;;;23.90;10.70;;;;;;;;;;6225335;23;20322;-90
2021/03/08 00:41:46;;;;;;;27.50;10.70;;;;;;;;;;6222380;23;20167;-89
2021/03/08 00:44:51;;;;;;;26.07;10.23;;;;;;;;;;6223098;23;20220;-89
2021/03/08 00:47:56;;;;;;;27.20;10.97;;;;;;;;;;6223186;23;20171;-88
2021/03/08 00:51:03;;;;;;;26.40;10.57;;;;;;;;;;6223314;23;20199;-89
2021/03/08 00:54:07;;;;;;;25.93;10.47;;;;;;;;;;6223557;23;20194;-89
2021/03/08 00:57:12;;;;;;;22.43;9.83;;;;;;;;;;6205560;23;20167;-89
2021/03/08 01:00:22;;;;;;;22.17;9.93;;;;;;;;;;6222195;23;20163;-89
2021/03/08 01:03:31;;;;;;;23.70;10.77;;;;;;;;;;6222915;23;20614;-88
2021/03/08 01:06:36;;;;;;;25.80;10.40;;;;;;;;;;6223566;23;20614;-89
2021/03/08 01:09:41;;;;;;;24.90;10.37;;;;;;;;;;6205092;23;20191;-87
2021/03/08 01:12:47;;;;;;;20.40;9.37;;;;;;;;;;6205637;23;20182;-90
2021/03/08 01:15:53;;;;;;;27.73;10.23;;;;;;;;;;6221181;23;20222;-89
2021/03/08 01:18:58;;;;;;;24.13;10.40;;;;;;;;;;6206137;23;20163;-89
2021/03/08 01:22:03;;;;;;;25.70;11.60;;;;;;;;;;6206016;23;20163;-88
2021/03/08 01:25:09;;;;;;;30.67;10.97;;;;;;;;;;6206073;23;20195;-89
2021/03/08 01:28:13;;;;;;;23.97;10.47;;;;;;;;;;6205944;23;20178;-88
2021/03/08 01:31:17;;;;;;;31.97;11.33;;;;;;;;;;6205328;23;20195;-88
2021/03/08 01:34:23;;;;;;;31.53;11.43;;;;;;;;;;6205613;23;20249;-88
2021/03/08 01:37:28;;;;;;;28.73;11.23;;;;;;;;;;6207764;23;20174;-89
2021/03/08 01:40:33;;;;;;;25.97;10.80;;;;;;;;;;6205876;23;20171;-88
2021/03/08 01:43:37;;;;;;;25.17;10.70;;;;;;;;;;6206973;23;20171;-88
2021/03/08 01:46:42;;;;;;;27.20;11.17;;;;;;;;;;6224143;23;20245;-89
2021/03/08 01:49:47;;;;;;;24.40;10.47;;;;;;;;;;6205464;23;20206;-89
2021/03/08 01:52:52;;;;;;;23.73;10.43;;;;;;;;;;6207349;23;20207;-88
2021/03/08 01:55:57;;;;;;;21.70;9.87;;;;;;;;;;6223327;23;20171;-89
2021/03/08 01:59:02;;;;;;;21.63;10.17;;;;;;;;;;6223810;23;20187;-88
2021/03/08 02:02:07;;;;;;;26.90;10.83;;;;;;;;;;6204818;23;20166;-87
2021/03/08 02:05:14;;;;;;;24.20;10.63;;;;;;;;;;6205049;23;20514;-87
2021/03/08 02:08:20;;;;;;;26.77;11.13;;;;;;;;;;6203274;23;20380;-87
2021/03/08 02:11:24;;;;;;;30.60;11.40;;;;;;;;;;6207029;23;20267;-87
2021/03/08 02:14:33;;;;;;;27.37;10.43;;;;;;;;;;6204905;23;20179;-86
2021/03/08 02:17:39;;;;;;;26.03;10.03;;;;;;;;;;6205495;23;20173;-88
2021/03/08 02:20:55;;;;;;;25.93;10.20;;;;;;;;;;6205353;23;20262;-89
2021/03/08 02:24:30;;;;;;;28.87;10.93;;;;;;;;;;6203777;23;20247;-89
2021/03/08 02:27:58;;;;;;;27.43;11.13;;;;;;;;;;6205912;23;20178;-88
2021/03/08 02:31:06;;;;;;;28.40;12.10;;;;;;;;;;6223178;23;20222;-88
2021/03/08 02:34:11;;;;;;;22.23;10.30;;;;;;;;;;6205870;23;20653;-89
2021/03/08 02:37:18;;;;;;;27.53;11.00;;;;;;;;;;6203879;23;20175;-87
2021/03/08 02:40:26;;;;;;;26.23;10.60;;;;;;;;;;6203926;23;20670;-89
2021/03/08 02:43:31;;;;;;;29.13;11.40;;;;;;;;;;6203800;22;20160;-89
2021/03/08 02:46:38;;;;;;;26.67;11.57;;;;;;;;;;6204110;23;20183;-89
2021/03/08 02:49:43;;;;;;;28.60;11.00;;;;;;;;;;6205399;23;20564;-89
2021/03/08 02:52:52;;;;;;;24.93;10.87;;;;;;;;;;6203933;23;20236;-89
2021/03/08 02:56:00;;;;;;;25.70;10.70;;;;;;;;;;6222038;23;20167;-89
2021/03/08 02:59:06;;;;;;;27.10;10.80;;;;;;;;;;6204570;22;20174;-89
2021/03/08 03:02:12;;;;;;;25.37;10.90;;;;;;;;;;6204713;23;20210;-88
2021/03/08 03:05:17;;;;;;;24.03;10.70;;;;;;;;;;6202994;23;20223;-89
2021/03/08 03:08:22;;;;;;;28.43;11.03;;;;;;;;;;6204451;23;20627;-88
2021/03/08 03:11:28;;;;;;;31.00;12.57;;;;;;;;;;6205398;23;20250;-88
2021/03/08 03:14:33;;;;;;;26.40;11.17;;;;;;;;;;6205141;23;20199;-89
2021/03/08 03:17:39;;;;;;;29.10;10.57;;;;;;;;;;6204965;23;20225;-89
2021/03/08 03:20:44;;;;;;;23.67;10.47;;;;;;;;;;6204273;23;20211;-89
2021/03/08 03:23:50;;;;;;;26.37;10.10;;;;;;;;;;6206082;23;20187;-88
2021/03/08 03:26:55;;;;;;;22.10;10.17;;;;;;;;;;6205199;23;20171;-89
2021/03/08 03:30:00;;;;;;;28.57;10.47;;;;;;;;;;6205894;23;20175;-90
2021/03/08 03:33:06;;;;;;;22.33;9.70;;;;;;;;;;6206567;23;20218;-89
2021/03/08 03:36:11;;;;;;;23.77;10.83;;;;;;;;;;6225229;23;20159;-88
2021/03/08 03:39:15;;;;;;;29.47;9.60;;;;;;;;;;6225364;23;20513;-89
2021/03/08 03:42:20;;;;;;;22.47;10.10;;;;;;;;;;6224864;23;20167;-88
2021/03/08 03:45:25;;;;;;;25.43;10.10;;;;;;;;;;6206552;23;20167;-87
2021/03/08 03:48:30;;;;;;;23.17;9.77;;;;;;;;;;6206472;23;20174;-88
2021/03/08 03:51:35;;;;;;;23.90;9.63;;;;;;;;;;6206649;23;20191;-88
2021/03/08 03:54:40;;;;;;;24.00;10.40;;;;;;;;;;6228093;23;20235;-88
2021/03/08 03:57:50;;;;;;;24.13;10.53;;;;;;;;;;6223615;23;20167;-89
2021/03/08 04:00:57;;;;;;;23.10;9.87;;;;;;;;;;6223423;23;20178;-88
2021/03/08 04:04:04;;;;;;;25.80;10.93;;;;;;;;;;6223758;23;20182;-89
2021/03/08 04:07:09;;;;;;;24.37;10.90;;;;;;;;;;6222212;23;20262;-89
2021/03/08 04:10:14;;;;;;;21.43;9.60;;;;;;;;;;6222340;23;20236;-88
2021/03/08 04:13:19;;;;;;;26.07;11.03;;;;;;;;;;6224745;23;20219;-88
2021/03/08 04:16:25;;;;;;;27.43;11.13;;;;;;;;;;6223267;23;20171;-89
2021/03/08 04:19:31;;;;;;;28.63;11.57;;;;;;;;;;6223500;23;20227;-88
2021/03/08 04:22:35;;;;;;;26.70;11.33;;;;;;;;;;6222402;23;20167;-89
2021/03/08 04:25:41;;;;;;;31.10;10.57;;;;;;;;;;6223262;23;20182;-89
2021/03/08 04:28:46;;;;;;;26.20;10.47;;;;;;;;;;6222688;23;20190;-90
2021/03/08 04:31:51;;;;;;;27.40;10.63;;;;;;;;;;6222521;23;20199;-88
2021/03/08 04:34:56;;;;;;;26.73;10.40;;;;;;;;;;6222076;23;20330;-89
2021/03/08 04:38:00;;;;;;;23.70;9.77;;;;;;;;;;6222400;23;20186;-88
2021/03/08 04:41:05;;;;;;;26.37;11.37;;;;;;;;;;6223566;23;20178;-90
2021/03/08 04:44:10;;;;;;;28.90;11.13;;;;;;;;;;6223145;23;20171;-89
2021/03/08 04:47:16;;;;;;;25.03;10.33;;;;;;;;;;6223333;23;20235;-88
2021/03/08 04:50:22;;;;;;;25.53;10.73;;;;;;;;;;6223263;23;20261;-89
2021/03/08 04:53:26;;;;;;;27.47;11.00;;;;;;;;;;6222325;23;20331;-89
2021/03/08 04:56:32;;;;;;;26.80;10.43;;;;;;;;;;6205728;23;20202;-87
2021/03/08 04:59:37;;;;;;;26.77;10.60;;;;;;;;;;6206922;23;20195;-87
2021/03/08 05:03:07;;;;;;;29.37;10.93;;;;;;;;;;6204760;23;20171;-88
2021/03/08 05:06:13;;;;;;;29.83;9.77;;;;;;;;;;6224690;23;20253;-89
2021/03/08 05:09:20;;;;;;;24.40;10.27;;;;;;;;;;6224057;23;20170;-87
2021/03/08 05:12:26;;;;;;;34.77;10.77;;;;;;;;;;6205724;23;20235;-89
2021/03/08 05:15:30;;;;;;;24.60;9.80;;;;;;;;;;6208701;23;20269;-87
2021/03/08 05:18:35;;;;;;;33.80;10.80;;;;;;;;;;6224030;23;20211;-88
2021/03/08 05:21:42;;;;;;;26.43;9.90;;;;;;;;;;6206571;23;20226;-89
2021/03/08 05:24:49;;;;;;;25.77;11.43;;;;;;;;;;6205471;23;20175;-89
2021/03/08 05:27:54;;;;;;;29.87;10.63;;;;;;;;;;6226388;23;20533;-89
2021/03/08 05:31:00;;;;;;;27.17;11.63;;;;;;;;;;6206359;23;20198;-88
2021/03/08 05:34:07;;;;;;;33.37;11.10;;;;;;;;;;6204998;23;20224;-88
2021/03/08 05:37:14;;;;;;;27.50;11.23;;;;;;;;;;6207138;23;20235;-88
2021/03/08 05:40:22;;;;;;;26.03;10.20;;;;;;;;;;6205541;23;20182;-89
2021/03/08 05:43:29;;;;;;;22.30;10.00;;;;;;;;;;6206990;23;20179;-90
2021/03/08 05:46:45;;;;;;;26.37;9.97;;;;;;;;;;6189934;23;20560;-88
2021/03/08 05:50:02;;;;;;;29.13;11.47;;;;;;;;;;6208357;23;20187;-87
2021/03/08 05:53:26;;;;;;;26.87;9.53;;;;;;;;;;6207215;23;20163;-89
2021/03/08 05:56:36;;;;;;;25.70;10.60;;;;;;;;;;6205991;23;20253;-88
2021/03/08 05:59:48;;;;;;;22.73;10.50;;;;;;;;;;6205235;23;20277;-89
2021/03/08 06:02:54;;;;;;;28.13;10.67;;;;;;;;;;6225639;23;20230;-88
2021/03/08 06:06:18;;;;;;;24.13;10.10;;;;;;;;;;6223597;23;20218;-88
2021/03/08 06:09:24;;;;;;;28.43;11.43;;;;;;;;;;6202239;23;20274;-88
2021/03/08 06:12:32;;;;;;;27.07;10.67;;;;;;;;;;6203233;23;20709;-88
2021/03/08 06:15:38;;;;;;;30.20;12.03;;;;;;;;;;6201748;23;20174;-87
2021/03/08 06:18:45;;;;;;;30.53;11.83;;;;;;;;;;6204186;23;20167;-88
2021/03/08 06:21:50;;;;;;;25.50;10.83;;;;;;;;;;6222502;23;20170;-88
2021/03/08 06:24:58;;;;;;;25.27;10.57;;;;;;;;;;6205118;23;20167;-88
2021/03/08 06:28:03;;;;;;;28.97;11.57;;;;;;;;;;6206059;23;20218;-89
2021/03/08 06:31:08;;;;;;;29.77;11.07;;;;;;;;;;6203838;23;20529;-86
2021/03/08 06:34:13;;;;;;;40.90;12.47;;;;;;;;;;6204153;23;20170;-88
2021/03/08 06:37:17;;;;;;;27.53;11.97;;;;;;;;;;6204793;23;20167;-88
2021/03/08 06:40:22;;;;;;;28.67;11.37;;;;;;;;;;6205313;23;20187;-87
2021/03/08 06:43:28;;;;;;;29.10;11.13;;;;;;;;;;6222742;23;20512;-88
2021/03/08 06:46:32;;;;;;;26.23;11.20;;;;;;;;;;6222249;23;20171;-87
2021/03/08 06:49:36;;;;;;;26.30;10.90;;;;;;;;;;6206590;23;20170;-89
2021/03/08 06:52:41;;;;;;;28.40;10.70;;;;;;;;;;6206651;23;20650;-88
2021/03/08 06:55:46;;;;;;;25.93;11.53;;;;;;;;;;6206518;23;20214;-89
2021/03/08 06:59:08;;;;;;;25.90;10.80;;;;;;;;;;6225119;23;20175;-86
2021/03/08 07:02:12;;;;;;;26.00;11.73;;;;;;;;;;6207662;23;20167;-88
2021/03/08 07:05:26;;;;;;;27.63;11.07;;;;;;;;;;6226263;23;20183;-87
2021/03/08 07:08:31;;;;;;;26.03;11.47;;;;;;;;;;6207444;23;20175;-89
2021/03/08 07:11:36;;;;;;;30.53;10.67;;;;;;;;;;6206904;23;20484;-87
2021/03/08 07:14:43;;;;;;;25.17;10.37;;;;;;;;;;6209107;23;20167;-89
2021/03/08 07:17:49;;;;;;;25.40;11.40;;;;;;;;;;6214706;22;20160;-90
2021/03/08 07:24:23;;;;;;;43.80;15.53;;;;;;;;;;6208090;23;20186;-90
2021/03/08 07:27:39;;;;;;;33.43;13.60;;;;;;;;;;6209004;23;20214;-90
2021/03/08 07:30:46;;;;;;;45.20;20.83;;;;;;;;;;6210689;23;20203;-89
2021/03/08 07:33:58;;;;;;;39.97;12.87;;;;;;;;;;6193593;23;20171;-89
2021/03/08 07:37:03;;;;;;;27.27;11.50;;;;;;;;;;6226930;23;20177;-88
2021/03/08 07:40:08;;;;;;;26.00;11.53;;;;;;;;;;6211025;23;20235;-89
2021/03/08 07:43:22;;;;;;;26.93;10.67;;;;;;;;;;6209346;23;20166;-90
2021/03/08 07:46:28;;;;;;;27.17;11.70;;;;;;;;;;6209312;23;20230;-90
2021/03/08 07:49:34;;;;;;;30.50;12.57;;;;;;;;;;6208567;23;20171;-89
2021/03/08 07:52:39;;;;;;;27.67;11.53;;;;;;;;;;6210079;23;20207;-88
2021/03/08 07:55:43;;;;;;;31.63;12.33;;;;;;;;;;6225134;23;20190;-88
2021/03/08 07:58:48;;;;;;;24.17;11.40;;;;;;;;;;6227672;23;20199;-89
2021/03/08 08:01:53;;;;;;;32.97;13.10;;;;;;;;;;6227267;23;20642;-88
2021/03/08 08:04:58;;;;;;;24.37;11.50;;;;;;;;;;6227430;23;20206;-88
2021/03/08 08:08:02;;;;;;;25.87;11.90;;;;;;;;;;6232968;23;20168;-91
2021/03/08 08:11:08;;;;;;;21.17;10.43;;;;;;;;;;6228642;22;20223;-88
2021/03/08 08:14:13;;;;;;;25.57;10.20;;;;;;;;;;6229265;23;20473;-87
2021/03/08 08:17:23;;;;;;;23.57;10.23;;;;;;;;;;6228429;23;20619;-88
2021/03/08 08:20:29;;;;;;;24.03;10.20;;;;;;;;;;6229218;23;20191;-90
2021/03/08 08:23:37;;;;;;;28.97;10.63;;;;;;;;;;6225564;23;20191;-89
2021/03/08 08:26:42;;;;;;;21.30;9.83;;;;;;;;;;6226155;23;20142;-90
2021/03/08 08:29:49;;;;;;;22.60;10.43;;;;;;;;;;6226514;22;20162;-88
2021/03/08 08:32:55;;;;;;;24.40;10.70;;;;;;;;;;6227603;23;20187;-90
2021/03/08 08:36:10;;;;;;;25.40;10.93;;;;;;;;;;6227555;22;20191;-89
2021/03/08 08:39:15;;;;;;;25.80;11.23;;;;;;;;;;6225689;23;20164;-90
2021/03/08 08:42:21;;;;;;;25.67;10.97;;;;;;;;;;6228975;23;20163;-88
2021/03/08 08:45:31;;;;;;;25.90;10.57;;;;;;;;;;6228616;23;20226;-89
2021/03/08 08:48:36;;;;;;;31.20;10.87;;;;;;;;;;6228671;22;20199;-88
2021/03/08 08:51:50;;;;;;;32.63;10.63;;;;;;;;;;6228531;23;20215;-89
2021/03/08 08:54:56;;;;;;;26.67;11.27;;;;;;;;;;6225861;23;20240;-89
2021/03/08 08:58:19;;;;;;;20.37;9.33;;;;;;;;;;6227582;23;20210;-89
2021/03/08 09:01:42;;;;;;;26.83;10.03;;;;;;;;;;6226123;23;20254;-89
2021/03/08 09:04:47;;;;;;;23.20;9.77;;;;;;;;;;6229695;23;20176;-89
2021/03/08 09:08:12;;;;;;;21.70;9.37;;;;;;;;;;6228363;23;20278;-88
2021/03/08 09:11:42;;;;;;;22.93;9.67;;;;;;;;;;6245966;23;20248;-89
2021/03/08 09:14:57;;;;;;;21.93;9.80;;;;;;;;;;6228074;22;20202;-90
2021/03/08 09:18:04;;;;;;;33.90;9.67;;;;;;;;;;6227774;23;20614;-89
2021/03/08 09:21:19;;;;;;;21.00;9.20;;;;;;;;;;6245298;23;20210;-89
2021/03/08 09:24:30;;;;;;;21.87;9.50;;;;;;;;;;6230356;22;20171;-87
2021/03/08 09:27:36;;;;;;;21.27;9.27;;;;;;;;;;6226999;22;20214;-89
2021/03/08 09:30:42;;;;;;;17.07;8.47;;;;;;;;;;6227405;23;20159;-90
2021/03/08 09:33:49;;;;;;;26.37;10.03;;;;;;;;;;6229329;22;20172;-89
2021/03/08 09:36:55;;;;;;;30.17;9.17;;;;;;;;;;6229988;22;20167;-91
2021/03/08 09:40:00;;;;;;;21.00;8.87;;;;;;;;;;6228604;22;20207;-90
2021/03/08 09:43:17;;;;;;;22.07;9.23;;;;;;;;;;6233109;22;20555;-90
2021/03/08 09:46:23;;;;;;;18.77;9.03;;;;;;;;;;6230893;22;20151;-90
2021/03/08 09:49:45;;;;;;;25.57;8.63;;;;;;;;;;6231410;22;20171;-90
2021/03/08 09:52:53;;;;;;;19.60;8.50;;;;;;;;;;6228289;23;20195;-90
2021/03/08 09:56:03;;;;;;;18.43;8.07;;;;;;;;;;6227907;22;20167;-90
2021/03/08 09:59:08;;;;;;;20.00;8.57;;;;;;;;;;6228267;23;20205;-89
2021/03/08 10:02:16;;;;;;;18.87;8.63;;;;;;;;;;6228024;23;20187;-90
2021/03/08 10:05:21;;;;;;;19.27;8.20;;;;;;;;;;6228892;23;20170;-90
2021/03/08 10:08:31;;;;;;;18.23;7.67;;;;;;;;;;6230337;22;20218;-89
2021/03/08 10:11:36;;;;;;;20.27;8.37;;;;;;;;;;6231028;22;20199;-92
2021/03/08 10:14:41;;;;;;;16.23;7.20;;;;;;;;;;6229344;23;20170;-88
2021/03/08 16:18:59;;;;;;;12.40;6.43;;;;;;;;;;6120654;23;20207;-90
2021/03/08 16:22:05;;;;;;;14.40;6.80;;;;;;;;;;6127307;23;20157;-90
2021/03/08 16:25:11;;;;;;;12.80;6.87;;;;;;;;;;6123097;23;20173;-91
2021/03/08 16:28:15;;;;;;;14.03;7.47;;;;;;;;;;6122425;23;20223;-91
2021/03/08 16:31:20;;;;;;;15.30;6.97;;;;;;;;;;6122854;23;20200;-91
2021/03/08 16:34:26;;;;;;;26.17;7.33;;;;;;;;;;6122263;23;20300;-90
2021/03/08 16:37:31;;;;;;;18.87;7.83;;;;;;;;;;6122033;23;20186;-90
2021/03/08 16:40:36;;;;;;;17.83;6.90;;;;;;;;;;6122918;23;20181;-91
2021/03/08 16:43:40;;;;;;;13.77;7.03;;;;;;;;;;6123228;23;20214;-90
2021/03/08 16:46:45;;;;;;;14.17;6.93;;;;;;;;;;6122690;23;20198;-89
2021/03/08 16:49:52;;;;;;;27.27;8.00;;;;;;;;;;6122931;23;20170;-90
2021/03/08 16:52:56;;;;;;;19.03;7.30;;;;;;;;;;6121228;23;20202;-90
2021/03/08 16:56:02;;;;;;;20.70;7.60;;;;;;;;;;6122565;23;20185;-91
2021/03/08 16:59:07;;;;;;;14.60;7.60;;;;;;;;;;6125114;23;20181;-91
2021/03/08 17:02:12;;;;;;;18.33;7.70;;;;;;;;;;6124694;23;20259;-90
2021/03/08 17:05:20;;;;;;;26.60;8.03;;;;;;;;;;6122012;23;20169;-90
2021/03/08 17:08:24;;;;;;;18.20;7.90;;;;;;;;;;6122829;23;20198;-91
2021/03/08 17:11:30;;;;;;;24.77;8.70;;;;;;;;;;6123141;23;20208;-91
2021/03/08 17:14:34;;;;;;;20.47;8.47;;;;;;;;;;6123268;23;20165;-90
2021/03/08 17:17:39;;;;;;;24.23;8.70;;;;;;;;;;6131983;23;20193;-90
2021/03/08 17:20:45;;;;;;;20.30;9.30;;;;;;;;;;6141162;23;20185;-91
2021/03/08 17:23:50;;;;;;;18.80;9.43;;;;;;;;;;6141973;23;20185;-89
2021/03/08 17:26:55;;;;;;;25.70;8.87;;;;;;;;;;6138365;23;20192;-90
2021/03/08 17:29:59;;;;;;;23.30;9.03;;;;;;;;;;6141032;23;20241;-91
2021/03/08 17:33:04;;;;;;;18.63;8.07;;;;;;;;;;6142959;23;20193;-90
2021/03/08 17:36:11;;;;;;;16.53;7.93;;;;;;;;;;6142074;23;20145;-91
2021/03/08 17:39:16;;;;;;;18.67;8.53;;;;;;;;;;6141236;23;20169;-92
2021/03/08 17:42:20;;;;;;;20.60;8.50;;;;;;;;;;6138515;23;20250;-90
2021/03/08 17:45:25;;;;;;;18.80;8.60;;;;;;;;;;6136787;23;20190;-89
2021/03/08 17:48:30;;;;;;;21.87;9.57;;;;;;;;;;6138277;23;20166;-91
2021/03/08 17:51:36;;;;;;;21.57;9.83;;;;;;;;;;6139734;23;20256;-90
2021/03/08 17:54:41;;;;;;;19.03;8.77;;;;;;;;;;6139612;23;20153;-90
2021/03/08 17:57:46;;;;;;;23.70;9.57;;;;;;;;;;6140151;23;20237;-91
2021/03/08 18:00:50;;;;;;;21.17;9.13;;;;;;;;;;6140136;23;20606;-91
2021/03/08 18:03:55;;;;;;;20.20;9.77;;;;;;;;;;6139087;23;20269;-90
2021/03/08 18:07:02;;;;;;;20.67;9.47;;;;;;;;;;6139228;23;20213;-91
2021/03/08 18:10:08;;;;;;;20.10;9.67;;;;;;;;;;6143376;23;20181;-90
2021/03/08 18:13:13;;;;;;;23.00;9.70;;;;;;;;;;6141343;23;20180;-91
2021/03/08 18:16:18;;;;;;;23.50;10.30;;;;;;;;;;6141386;23;20213;-88
2021/03/08 18:22:44;;;;;;;18.67;9.57;;;;;;;;;;6126427;23;20309;-91
2021/03/08 18:25:49;;;;;;;22.57;10.40;;;;;;;;;;6123821;23;20184;-91
2021/03/08 18:28:55;;;;;;;26.90;11.47;;;;;;;;;;6124483;23;20178;-88
2021/03/08 18:32:00;;;;;;;26.60;10.93;;;;;;;;;;6124575;23;20196;-90
2021/03/08 18:35:06;;;;;;;29.57;11.57;;;;;;;;;;6125292;23;20169;-91
2021/03/08 18:38:12;;;;;;;28.53;12.10;;;;;;;;;;6125943;23;20173;-90
2021/03/08 18:41:16;;;;;;;22.43;11.07;;;;;;;;;;6125145;23;20201;-90
2021/03/08 18:44:22;;;;;;;30.23;12.07;;;;;;;;;;6122900;23;20185;-92
2021/03/08 18:47:27;;;;;;;26.07;11.77;;;;;;;;;;6124039;23;20181;-90
2021/03/08 18:50:32;;;;;;;25.23;12.03;;;;;;;;;;6123854;23;20213;-91
2021/03/08 18:53:37;;;;;;;27.90;13.53;;;;;;;;;;6123754;23;20169;-90
2021/03/08 18:56:42;;;;;;;26.57;12.73;;;;;;;;;;6125162;23;20181;-91
2021/03/08 18:59:47;;;;;;;26.33;12.27;;;;;;;;;;6123500;23;20221;-90
2021/03/08 19:02:51;;;;;;;27.60;13.37;;;;;;;;;;6125547;23;20212;-90
2021/03/08 19:05:56;;;;;;;28.33;13.07;;;;;;;;;;6126281;23;20170;-90
2021/03/08 19:09:02;;;;;;;26.53;13.50;;;;;;;;;;6125919;23;20173;-90
2021/03/08 19:12:08;;;;;;;27.40;12.20;;;;;;;;;;6125088;23;20249;-90
2021/03/08 19:15:13;;;;;;;28.90;13.83;;;;;;;;;;6125530;23;20174;-91
2021/03/08 19:18:18;;;;;;;27.03;13.53;;;;;;;;;;6142840;23;20237;-90
2021/03/08 19:21:23;;;;;;;27.20;13.37;;;;;;;;;;6142608;23;20192;-89
2021/03/08 19:24:30;;;;;;;28.20;12.60;;;;;;;;;;6143721;23;20161;-90
2021/03/08 19:27:36;;;;;;;30.17;13.87;;;;;;;;;;6142735;23;20549;-91
2021/03/08 19:30:40;;;;;;;27.57;13.43;;;;;;;;;;6141434;23;20177;-91
2021/03/08 19:33:46;;;;;;;29.83;14.27;;;;;;;;;;6141313;23;20174;-92
2021/03/08 19:37:01;;;;;;;39.73;13.43;;;;;;;;;;6144041;23;20206;-90
2021/03/08 19:40:08;;;;;;;33.37;15.17;;;;;;;;;;6140686;23;20572;-91
2021/03/08 19:43:12;;;;;;;31.47;13.40;;;;;;;;;;6142225;23;20197;-91
2021/03/08 19:46:17;;;;;;;27.70;12.23;;;;;;;;;;6139921;23;20234;-90
2021/03/08 19:49:52;;;;;;;29.23;12.93;;;;;;;;;;6137152;23;20516;-89
2021/03/08 19:52:57;;;;;;;31.33;12.43;;;;;;;;;;6138245;23;20196;-89
2021/03/08 19:56:03;;;;;;;26.03;11.87;;;;;;;;;;6137976;23;20168;-92
2021/03/08 19:59:07;;;;;;;23.07;11.90;;;;;;;;;;6139861;23;20209;-90
2021/03/08 20:02:12;;;;;;;25.37;12.03;;;;;;;;;;6139399;23;20213;-90
2021/03/08 20:05:17;;;;;;;24.13;12.13;;;;;;;;;;6138868;23;20613;-90
2021/03/08 20:08:21;;;;;;;25.83;12.00;;;;;;;;;;6138803;23;20173;-90
2021/03/08 20:11:28;;;;;;;26.53;12.33;;;;;;;;;;6141012;23;20225;-90
2021/03/08 20:14:35;;;;;;;27.03;12.93;;;;;;;;;;6139112;23;20169;-88
2021/03/08 20:17:39;;;;;;;24.10;11.70;;;;;;;;;;6138929;23;20233;-91
2021/03/08 20:20:44;;;;;;;28.33;12.83;;;;;;;;;;6139669;23;20181;-90
2021/03/08 20:23:49;;;;;;;31.23;13.27;;;;;;;;;;6139444;23;20205;-90
2021/03/08 20:26:55;;;;;;;27.37;13.77;;;;;;;;;;6138647;23;20173;-90
2021/03/08 20:30:00;;;;;;;28.70;13.83;;;;;;;;;;6139102;23;20217;-91
2021/03/08 20:33:05;;;;;;;35.53;16.13;;;;;;;;;;6138600;23;20193;-91
2021/03/08 20:36:09;;;;;;;35.17;15.07;;;;;;;;;;6142222;23;20178;-90
2021/03/08 20:39:14;;;;;;;39.33;16.47;;;;;;;;;;6141992;23;20165;-91
2021/03/08 20:42:20;;;;;;;49.60;19.63;;;;;;;;;;6140308;23;20173;-90
2021/03/08 20:45:25;;;;;;;47.73;18.13;;;;;;;;;;6141612;23;20190;-89
2021/03/08 20:48:29;;;;;;;45.00;18.60;;;;;;;;;;6139937;23;20188;-89
2021/03/08 20:51:34;;;;;;;44.93;18.93;;;;;;;;;;6139421;23;20262;-89
2021/03/08 20:54:38;;;;;;;39.50;17.27;;;;;;;;;;6140177;23;20198;-90
2021/03/08 20:57:44;;;;;;;34.93;15.83;;;;;;;;;;6137687;23;20176;-89
2021/03/08 21:00:49;;;;;;;35.07;15.83;;;;;;;;;;6138296;23;20245;-90
2021/03/08 21:03:54;;;;;;;34.13;16.03;;;;;;;;;;6140154;23;20202;-89
2021/03/08 21:06:59;;;;;;;32.07;15.60;;;;;;;;;;6142563;23;20172;-90
2021/03/08 21:10:05;;;;;;;33.43;15.33;;;;;;;;;;6137740;23;20207;-90
2021/03/08 21:13:10;;;;;;;35.00;15.77;;;;;;;;;;6137652;23;20196;-90
2021/03/08 21:20:30;;;;;;;35.37;15.17;;;;;;;;;;6139413;23;20200;-90
2021/03/08 21:23:35;;;;;;;34.97;15.53;;;;;;;;;;6121171;23;20173;-91
2021/03/08 21:26:40;;;;;;;32.80;15.17;;;;;;;;;;6106058;23;20168;-91
2021/03/08 21:29:46;;;;;;;34.90;15.33;;;;;;;;;;6123323;23;20193;-90
2021/03/08 21:32:51;;;;;;;32.23;15.47;;;;;;;;;;6123513;23;20743;-89
2021/03/08 21:35:56;;;;;;;31.93;15.47;;;;;;;;;;6124497;23;20213;-91
2021/03/08 21:39:01;;;;;;;32.97;15.37;;;;;;;;;;6122999;23;20504;-90
2021/03/08 21:42:07;;;;;;;32.20;15.27;;;;;;;;;;6121578;23;20193;-90
2021/03/08 21:45:14;;;;;;;29.50;14.77;;;;;;;;;;6124855;23;20552;-90
2021/03/08 21:48:19;;;;;;;32.43;15.57;;;;;;;;;;6124043;23;20173;-89
2021/03/08 21:51:24;;;;;;;32.63;15.50;;;;;;;;;;6124287;23;20172;-92
2021/03/08 21:54:29;;;;;;;29.27;14.70;;;;;;;;;;6124071;23;20177;-91
2021/03/08 21:57:34;;;;;;;30.53;15.07;;;;;;;;;;6121941;23;20211;-89
2021/03/08 22:00:39;;;;;;;35.27;16.27;;;;;;;;;;6118701;23;20173;-91
2021/03/08 22:03:44;;;;;;;28.97;14.37;;;;;;;;;;6119424;23;20173;-91
2021/03/08 22:06:49;;;;;;;33.43;13.97;;;;;;;;;;6119308;23;20205;-90
2021/03/08 22:09:53;;;;;;;33.63;14.47;;;;;;;;;;6117482;23;20169;-90
2021/03/08 22:12:57;;;;;;;33.13;15.30;;;;;;;;;;6118976;23;20208;-90
2021/03/08 22:16:03;;;;;;;34.40;14.70;;;;;;;;;;6118331;23;20173;-90
2021/03/08 22:19:08;;;;;;;30.47;14.83;;;;;;;;;;6118381;23;20209;-90
2021/03/08 22:22:12;;;;;;;29.43;14.07;;;;;;;;;;6116724;23;20217;-90
2021/03/08 22:25:17;;;;;;;34.70;15.30;;;;;;;;;;6119637;23;20161;-91
2021/03/08 22:28:21;;;;;;;36.63;15.53;;;;;;;;;;6118446;23;20254;-90
2021/03/08 22:31:26;;;;;;;33.53;15.73;;;;;;;;;;6121243;23;20172;-91
2021/03/08 22:34:31;;;;;;;36.30;15.90;;;;;;;;;;6120786;23;20476;-90
2021/03/08 22:37:35;;;;;;;33.57;16.10;;;;;;;;;;6120581;23;20293;-91
2021/03/08 22:40:39;;;;;;;33.50;15.17;;;;;;;;;;6120896;23;20200;-91
2021/03/08 22:43:43;;;;;;;32.27;15.07;;;;;;;;;;6120003;23;20223;-89
2021/03/08 22:46:49;;;;;;;30.67;14.43;;;;;;;;;;6124187;23;20180;-90
2021/03/08 22:49:53;;;;;;;32.53;14.67;;;;;;;;;;6122555;23;20262;-91
2021/03/08 22:52:57;;;;;;;30.10;14.10;;;;;;;;;;6121622;23;20712;-89
2021/03/08 22:56:02;;;;;;;30.60;14.40;;;;;;;;;;6120897;23;20625;-90
2021/03/08 22:59:06;;;;;;;31.10;14.97;;;;;;;;;;6120001;23;20169;-90
2021/03/08 23:06:27;;;;;;;34.67;13.80;;;;;;;;;;6137315;23;20154;-92
2021/03/08 23:09:31;;;;;;;33.50;13.80;;;;;;;;;;6121158;23;20157;-91
2021/03/08 23:12:35;;;;;;;27.07;12.93;;;;;;;;;;6119206;23;20196;-90
2021/03/08 23:15:40;;;;;;;30.73;13.07;;;;;;;;;;6119988;23;20177;-92
2021/03/08 23:18:44;;;;;;;29.53;13.53;;;;;;;;;;6119508;23;20300;-91
2021/03/08 23:21:51;;;;;;;27.83;12.87;;;;;;;;;;6118644;23;20651;-90
2021/03/08 23:24:55;;;;;;;25.63;12.40;;;;;;;;;;6118452;23;20248;-89
2021/03/08 23:28:00;;;;;;;25.00;11.90;;;;;;;;;;6118959;23;20180;-90
2021/03/08 23:31:05;;;;;;;25.13;10.90;;;;;;;;;;6120170;23;20173;-90
2021/03/08 23:34:09;;;;;;;25.90;10.90;;;;;;;;;;6118915;23;20172;-89
2021/03/08 23:37:14;;;;;;;22.67;10.63;;;;;;;;;;6120032;23;20173;-88
2021/03/08 23:40:20;;;;;;;23.77;11.27;;;;;;;;;;6121276;23;20512;-90
2021/03/08 23:43:25;;;;;;;27.43;11.33;;;;;;;;;;6118802;23;20189;-92
2021/03/08 23:46:29;;;;;;;24.57;11.10;;;;;;;;;;6118752;23;20165;-91
2021/03/08 23:49:34;;;;;;;25.73;12.03;;;;;;;;;;6119200;23;20205;-89
2021/03/08 23:52:39;;;;;;;23.73;10.87;;;;;;;;;;6120036;23;20201;-91
2021/03/08 23:55:44;;;;;;;23.30;11.20;;;;;;;;;;6121969;23;20168;-91
2021/03/08 23:58:48;;;;;;;27.17;11.63;;;;;;;;;;6119450;23;20177;-90
